createdAt,value
2022-10-06T00:01:20.572Z,75.97
2022-10-06T00:03:49.081Z,75.96
2022-10-06T00:06:18.281Z,75.99
2022-10-06T00:08:47.687Z,76.14
2022-10-06T00:11:17.475Z,76.16
2022-10-06T00:13:46.489Z,76.08
2022-10-06T00:16:18.520Z,76.22
2022-10-06T00:18:46.723Z,76.16
2022-10-06T00:21:15.315Z,76.05
2022-10-06T00:23:43.596Z,76.12
2022-10-06T00:26:17.029Z,76.04
2022-10-06T00:28:50.244Z,75.94
2022-10-06T00:31:19.881Z,75.86
2022-10-06T00:33:50.318Z,75.81
2022-10-06T00:36:18.526Z,75.73
2022-10-06T00:38:47.249Z,75.52
2022-10-06T00:41:17.337Z,75.61
2022-10-06T00:43:58.080Z,75.36
2022-10-06T00:46:47.612Z,75.69
2022-10-06T00:49:23.974Z,75.93
2022-10-06T00:52:03.562Z,75.94
2022-10-06T00:54:33.778Z,75.95
2022-10-06T00:57:04.282Z,75.89
2022-10-06T00:59:33.359Z,75.78
2022-10-06T01:02:07.749Z,75.78
2022-10-06T01:04:40.458Z,75.96
2022-10-06T01:07:10.177Z,76.11
2022-10-06T01:09:38.917Z,76.16
2022-10-06T01:12:09.079Z,76.00
2022-10-06T01:14:44.931Z,76.13
2022-10-06T01:17:31.235Z,76.19
2022-10-06T01:20:10.879Z,76.58
2022-10-06T01:22:46.320Z,76.71
2022-10-06T01:25:17.740Z,76.80
2022-10-06T01:27:53.738Z,76.76
2022-10-06T01:30:33.684Z,76.75
2022-10-06T01:33:02.158Z,76.38
2022-10-06T01:35:33.640Z,76.39
2022-10-06T01:38:14.378Z,76.77
2022-10-06T01:40:44.626Z,77.03
2022-10-06T01:43:13.395Z,77.23
2022-10-06T01:45:46.530Z,77.11
2022-10-06T01:48:15.576Z,77.18
2022-10-06T01:50:46.926Z,77.18
2022-10-06T01:53:15.404Z,77.15
2022-10-06T01:55:44.911Z,76.94
2022-10-06T01:58:16.073Z,76.99
2022-10-06T02:00:44.536Z,77.05
2022-10-06T02:03:12.607Z,77.15
2022-10-06T02:05:40.885Z,77.11
2022-10-06T02:08:10.620Z,77.06
2022-10-06T02:10:41.021Z,77.05
2022-10-06T02:13:23.265Z,77.22
2022-10-06T02:15:56.476Z,77.33
2022-10-06T02:18:25.372Z,77.33
2022-10-06T02:20:55.678Z,77.43
2022-10-06T02:23:35.481Z,77.37
2022-10-06T02:26:05.912Z,77.42
2022-10-06T02:28:54.459Z,77.55
2022-10-06T02:31:25.449Z,77.55
2022-10-06T02:33:54.086Z,77.41
2022-10-06T02:36:24.103Z,77.32
2022-10-06T02:38:52.539Z,77.36
2022-10-06T02:41:31.857Z,77.30
2022-10-06T02:44:05.890Z,77.33
2022-10-06T02:46:36.510Z,77.27
2022-10-06T02:49:21.531Z,77.11
2022-10-06T02:51:50.115Z,77.05
2022-10-06T02:54:18.445Z,77.07
2022-10-06T02:56:48.856Z,76.95
2022-10-06T02:59:17.064Z,76.82
2022-10-06T03:01:46.520Z,76.98
2022-10-06T03:04:17.522Z,77.23
2022-10-06T03:06:46.330Z,77.27
2022-10-06T03:09:19.061Z,77.12
2022-10-06T03:11:47.593Z,77.20
2022-10-06T03:14:22.089Z,77.33
2022-10-06T03:16:51.996Z,77.40
2022-10-06T03:19:26.144Z,77.26
2022-10-06T03:21:55.343Z,77.21
2022-10-06T03:24:28.208Z,77.19
2022-10-06T03:26:58.467Z,77.18
2022-10-06T03:29:28.164Z,77.25
2022-10-06T03:31:58.698Z,77.21
2022-10-06T03:34:27.322Z,77.18
2022-10-06T03:36:55.874Z,77.31
2022-10-06T03:39:25.009Z,77.48
2022-10-06T03:41:53.332Z,77.47
2022-10-06T03:44:22.847Z,77.47
2022-10-06T03:46:51.542Z,77.48
2022-10-06T03:49:20.212Z,77.51
2022-10-06T03:51:48.641Z,77.75
2022-10-06T03:54:21.068Z,77.70
2022-10-06T03:56:50.984Z,77.73
2022-10-06T03:59:19.774Z,77.62
2022-10-06T04:01:49.283Z,77.58
2022-10-06T04:04:29.572Z,77.40
2022-10-06T04:07:08.514Z,77.37
2022-10-06T04:09:36.897Z,77.38
2022-10-06T04:12:05.382Z,77.32
2022-10-06T04:14:35.864Z,77.15
2022-10-06T04:17:04.451Z,77.03
2022-10-06T04:19:35.903Z,76.87
2022-10-06T04:22:04.488Z,76.95
2022-10-06T04:24:33.576Z,77.05
2022-10-06T04:27:22.965Z,77.16
2022-10-06T04:29:56.550Z,77.35
2022-10-06T04:32:24.542Z,77.43
2022-10-06T04:34:52.698Z,77.46
2022-10-06T04:37:21.172Z,77.46
2022-10-06T04:39:49.966Z,77.42
2022-10-06T04:42:19.367Z,77.53
2022-10-06T04:44:47.437Z,77.55
2022-10-06T04:47:15.610Z,77.46
2022-10-06T04:49:43.683Z,77.57
2022-10-06T04:52:11.912Z,77.64
2022-10-06T04:54:42.152Z,77.78
2022-10-06T04:57:10.558Z,77.89
2022-10-06T04:59:59.479Z,78.04
2022-10-06T05:02:32.244Z,78.10
2022-10-06T05:05:00.684Z,78.18
2022-10-06T05:07:29.164Z,78.20
2022-10-06T05:09:59.082Z,78.21
2022-10-06T05:12:30.427Z,78.25
2022-10-06T05:14:59.150Z,78.25
2022-10-06T05:17:27.287Z,78.50
2022-10-06T05:19:55.974Z,78.70
2022-10-06T05:22:24.053Z,78.87
2022-10-06T05:24:54.012Z,78.91
2022-10-06T05:27:22.341Z,79.14
2022-10-06T05:29:50.510Z,79.35
2022-10-06T05:32:19.743Z,79.64
2022-10-06T05:34:48.062Z,79.85
2022-10-06T05:37:17.186Z,79.68
2022-10-06T05:39:46.798Z,79.71
2022-10-06T05:42:14.973Z,79.48
2022-10-06T05:44:43.352Z,79.62
2022-10-06T05:47:15.928Z,80.01
2022-10-06T05:49:44.105Z,80.73
2022-10-06T05:52:12.183Z,79.94
2022-10-06T05:54:40.244Z,77.49
2022-10-06T05:57:08.964Z,74.90
2022-10-06T05:59:37.310Z,71.56
2022-10-06T06:02:06.390Z,68.02
2022-10-06T06:04:42.364Z,64.66
2022-10-06T06:07:10.949Z,60.38
2022-10-06T06:09:40.762Z,56.39
2022-10-06T06:12:09.127Z,54.15
2022-10-06T06:15:22.169Z,51.43
2022-10-06T06:17:56.638Z,49.57
2022-10-06T06:20:24.720Z,48.37
2022-10-06T06:22:53.674Z,47.24
2022-10-06T06:25:24.525Z,44.88
2022-10-06T06:27:55.490Z,42.83
2022-10-06T06:30:33.227Z,42.07
2022-10-06T06:33:01.506Z,39.97
2022-10-06T06:35:30.189Z,38.30
2022-10-06T06:38:01.390Z,35.63
2022-10-06T06:40:30.989Z,35.52
2022-10-06T06:43:01.112Z,35.51
2022-10-06T06:45:41.684Z,33.80
2022-10-06T06:48:20.568Z,33.18
2022-10-06T06:50:55.691Z,31.97
2022-10-06T06:53:24.123Z,31.07
2022-10-06T06:55:53.960Z,29.93
2022-10-06T06:58:23.593Z,30.40
2022-10-06T07:00:51.772Z,29.51
2022-10-06T07:03:45.213Z,30.00
2022-10-06T07:06:13.109Z,30.19
2022-10-06T07:08:43.718Z,27.48
2022-10-06T07:11:18.949Z,26.59
2022-10-06T07:13:50.884Z,26.12
2022-10-06T07:16:39.522Z,25.26
2022-10-06T07:19:26.669Z,25.00
2022-10-06T07:22:19.902Z,22.74
2022-10-06T07:25:06.764Z,21.75
2022-10-06T07:27:45.271Z,22.18
2022-10-06T07:30:19.569Z,22.73
2022-10-06T07:32:52.210Z,21.54
2022-10-06T07:35:22.667Z,20.78
2022-10-06T07:37:55.409Z,22.23
2022-10-06T07:40:25.221Z,22.23
2022-10-06T07:42:53.495Z,22.46
2022-10-06T07:45:47.057Z,22.19
2022-10-06T07:48:20.889Z,21.08
2022-10-06T07:50:54.064Z,20.73
2022-10-06T07:53:29.099Z,20.08
2022-10-06T07:56:11.304Z,20.38
2022-10-06T07:58:44.810Z,19.55
2022-10-06T08:01:14.511Z,19.14
2022-10-06T08:03:44.425Z,19.28
2022-10-06T08:06:15.831Z,18.89
2022-10-06T08:08:49.087Z,18.60
2022-10-06T08:11:22.639Z,17.93
2022-10-06T08:13:52.196Z,17.96
2022-10-06T08:16:23.114Z,17.79
2022-10-06T08:18:53.608Z,17.66
2022-10-06T08:21:28.273Z,18.62
2022-10-06T08:23:58.681Z,18.63
2022-10-06T08:26:28.923Z,18.72
2022-10-06T08:29:00.515Z,18.44
2022-10-06T08:31:30.458Z,18.84
2022-10-06T08:33:58.872Z,18.61
2022-10-06T08:36:31.395Z,18.35
2022-10-06T08:39:01.579Z,17.69
2022-10-06T08:41:48.395Z,17.67
2022-10-06T08:44:44.586Z,17.85
2022-10-06T08:47:20.715Z,17.15
2022-10-06T08:49:52.757Z,16.90
2022-10-06T08:52:59.605Z,16.41
2022-10-06T08:55:47.902Z,16.16
2022-10-06T08:58:35.072Z,16.22
2022-10-06T09:01:18.939Z,16.15
2022-10-06T09:03:49.260Z,16.18
2022-10-06T09:06:44.463Z,17.33
2022-10-06T09:09:18.369Z,18.50
2022-10-06T09:12:19.414Z,19.21
2022-10-06T09:14:53.021Z,20.25
2022-10-06T09:17:28.257Z,21.08
2022-10-06T09:20:01.464Z,22.20
2022-10-06T09:22:32.574Z,22.83
2022-10-06T09:25:22.783Z,23.81
2022-10-06T09:27:58.781Z,24.82
2022-10-06T09:30:27.546Z,25.67
2022-10-06T09:33:01.327Z,27.35
2022-10-06T09:36:09.209Z,27.90
2022-10-06T09:38:54.156Z,28.51
2022-10-06T09:41:34.698Z,29.11
2022-10-06T09:44:21.453Z,29.25
2022-10-06T09:46:49.565Z,29.68
2022-10-06T09:49:20.880Z,30.89
2022-10-06T09:52:18.486Z,31.64
2022-10-06T09:55:04.217Z,31.48
2022-10-06T09:57:32.759Z,31.81
2022-10-06T10:00:01.788Z,31.87
2022-10-06T10:02:37.627Z,32.39
2022-10-06T10:05:29.169Z,31.38
2022-10-06T10:08:25.188Z,31.41
2022-10-06T10:11:40.184Z,32.39
2022-10-06T10:14:21.635Z,33.21
2022-10-06T10:16:53.369Z,33.18
2022-10-06T10:19:37.428Z,33.64
2022-10-06T10:22:06.521Z,33.48
2022-10-06T10:25:19.649Z,33.36
2022-10-06T10:27:55.859Z,33.24
2022-10-06T10:30:24.613Z,33.61
2022-10-06T10:33:04.652Z,32.40
2022-10-06T10:35:37.537Z,31.97
2022-10-06T10:38:22.719Z,33.24
2022-10-06T10:41:09.725Z,33.78
2022-10-06T10:44:11.205Z,33.60
2022-10-06T10:46:42.996Z,34.25
2022-10-06T10:49:24.536Z,34.04
2022-10-06T10:51:58.856Z,32.36
2022-10-06T10:54:45.257Z,31.35
2022-10-06T10:57:19.455Z,31.91
2022-10-06T10:59:47.449Z,32.18
2022-10-06T11:02:22.061Z,32.50
2022-10-06T11:04:57.909Z,31.95
2022-10-06T11:07:58.257Z,32.60
2022-10-06T11:10:31.852Z,32.18
2022-10-06T11:13:11.519Z,33.44
2022-10-06T11:16:00.501Z,32.62
2022-10-06T11:18:50.541Z,31.89
2022-10-06T11:21:50.865Z,31.82
2022-10-06T11:24:32.089Z,31.61
2022-10-06T11:27:26.947Z,30.89
2022-10-06T11:30:06.959Z,30.70
2022-10-06T11:32:53.196Z,32.03
2022-10-06T11:35:24.241Z,32.03
2022-10-06T11:38:02.449Z,31.38
2022-10-06T11:40:36.459Z,30.89
2022-10-06T11:43:10.469Z,31.68
2022-10-06T11:45:51.385Z,31.81
2022-10-06T11:48:28.222Z,31.34
2022-10-06T11:51:21.688Z,31.51
2022-10-06T11:53:50.610Z,31.79
2022-10-06T11:56:18.685Z,31.29
2022-10-06T11:58:56.049Z,30.38
2022-10-06T12:01:39.339Z,30.49
2022-10-06T12:04:10.332Z,29.96
2022-10-06T12:06:47.590Z,28.56
2022-10-06T12:09:33.695Z,27.14
2022-10-06T12:12:17.924Z,25.67
2022-10-06T12:18:12.877Z,23.21
2022-10-06T12:21:06.542Z,22.56
2022-10-06T12:24:06.422Z,21.56
2022-10-06T12:26:40.333Z,21.56
2022-10-06T12:29:49.062Z,21.28
2022-10-06T12:32:27.801Z,20.33
2022-10-06T12:35:19.010Z,20.16
2022-10-06T12:37:54.426Z,18.65
2022-10-06T12:40:43.946Z,18.99
2022-10-06T12:43:14.820Z,19.68
2022-10-06T12:45:46.319Z,19.56
2022-10-06T12:48:21.636Z,20.04
2022-10-06T12:50:55.029Z,20.03
2022-10-06T12:53:34.856Z,19.83
2022-10-06T12:56:08.631Z,20.50
2022-10-06T12:58:36.801Z,21.10
2022-10-06T13:01:09.576Z,22.00
2022-10-06T13:03:38.859Z,23.26
2022-10-06T13:06:09.555Z,24.38
2022-10-06T13:08:39.640Z,25.00
2022-10-06T13:11:28.392Z,25.20
2022-10-06T13:14:13.324Z,25.85
2022-10-06T13:16:45.636Z,26.64
2022-10-06T13:19:27.012Z,26.86
2022-10-06T13:21:55.393Z,28.16
2022-10-06T13:24:27.204Z,28.73
2022-10-06T13:26:56.359Z,29.09
2022-10-06T13:29:26.007Z,29.68
2022-10-06T13:31:55.993Z,31.49
2022-10-06T13:34:32.081Z,32.29
2022-10-06T13:37:01.416Z,33.18
2022-10-06T13:39:32.890Z,32.83
2022-10-06T13:42:10.282Z,32.39
2022-10-06T13:45:03.066Z,33.69
2022-10-06T13:47:31.410Z,34.70
2022-10-06T13:50:06.579Z,35.00
2022-10-06T13:52:36.532Z,35.18
2022-10-06T13:55:26.656Z,35.03
2022-10-06T13:58:00.904Z,34.97
2022-10-06T14:00:32.620Z,36.21
2022-10-06T14:03:07.560Z,37.69
2022-10-06T14:05:41.449Z,38.05
2022-10-06T14:08:09.629Z,38.42
2022-10-06T14:10:46.019Z,37.37
2022-10-06T14:13:24.732Z,36.96
2022-10-06T14:16:03.512Z,36.47
2022-10-06T14:18:47.098Z,37.16
2022-10-06T14:21:45.726Z,37.92
2022-10-06T14:24:16.656Z,38.07
2022-10-06T14:26:47.152Z,38.45
2022-10-06T14:29:19.219Z,39.18
2022-10-06T14:31:48.546Z,40.59
2022-10-06T14:34:21.325Z,41.26
2022-10-06T14:36:51.771Z,42.16
2022-10-06T14:39:20.577Z,42.75
2022-10-06T14:41:51.873Z,42.63
2022-10-06T14:44:26.192Z,43.71
2022-10-06T14:46:58.047Z,44.22
2022-10-06T14:49:26.695Z,44.26
2022-10-06T14:51:56.646Z,44.94
2022-10-06T14:54:25.436Z,44.11
2022-10-06T14:56:54.016Z,43.32
2022-10-06T14:59:22.192Z,43.03
2022-10-06T15:01:50.504Z,43.51
2022-10-06T15:04:28.290Z,46.41
2022-10-06T15:07:14.769Z,46.01
2022-10-06T15:09:42.946Z,48.95
2022-10-06T15:12:10.999Z,48.86
2022-10-06T15:14:40.121Z,47.06
2022-10-06T15:17:08.594Z,46.57
2022-10-06T15:19:37.196Z,47.04
2022-10-06T15:22:06.375Z,49.56
2022-10-06T15:24:34.548Z,50.41
2022-10-06T15:27:24.721Z,50.83
2022-10-06T15:29:53.931Z,51.53
2022-10-06T15:32:22.692Z,52.74
2022-10-06T15:34:52.125Z,53.17
2022-10-06T15:37:20.408Z,53.70
2022-10-06T15:39:48.556Z,53.62
2022-10-06T15:42:18.992Z,54.23
2022-10-06T15:44:50.167Z,54.73
2022-10-06T15:47:18.187Z,54.96
2022-10-06T15:49:47.381Z,54.89
2022-10-06T15:52:17.712Z,54.99
2022-10-06T15:54:50.033Z,55.33
2022-10-06T15:57:20.932Z,56.00
2022-10-06T15:59:50.242Z,56.05
2022-10-06T16:02:20.394Z,56.20
2022-10-06T16:05:04.554Z,56.70
2022-10-06T16:07:34.215Z,57.19
2022-10-06T16:10:02.513Z,57.45
2022-10-06T16:12:31.089Z,57.94
2022-10-06T16:14:59.268Z,58.26
2022-10-06T16:17:27.275Z,59.05
2022-10-06T16:19:55.517Z,59.66
2022-10-06T16:22:23.844Z,59.50
2022-10-06T16:24:52.164Z,60.26
2022-10-06T16:27:20.372Z,60.02
2022-10-06T16:29:48.954Z,60.55
2022-10-06T16:32:17.431Z,60.76
2022-10-06T16:34:50.509Z,60.95
2022-10-06T16:37:18.770Z,61.62
2022-10-06T16:39:47.045Z,61.65
2022-10-06T16:42:18.116Z,62.53
2022-10-06T16:44:55.172Z,62.99
2022-10-06T16:47:23.344Z,63.17
2022-10-06T16:49:51.425Z,63.73
2022-10-06T16:52:22.343Z,64.20
2022-10-06T16:54:50.428Z,64.10
2022-10-06T16:57:18.808Z,64.34
2022-10-06T16:59:47.294Z,64.47
2022-10-06T17:02:15.636Z,64.78
2022-10-06T17:04:43.842Z,65.67
2022-10-06T17:07:11.980Z,65.78
2022-10-06T17:09:51.087Z,65.66
2022-10-06T17:12:30.974Z,65.48
2022-10-06T17:14:59.275Z,65.88
2022-10-06T17:17:27.965Z,66.20
2022-10-06T17:19:56.136Z,66.46
2022-10-06T17:22:25.229Z,66.85
2022-10-06T17:24:53.267Z,66.95
2022-10-06T17:27:22.712Z,67.09
2022-10-06T17:29:50.981Z,67.36
2022-10-06T17:32:19.241Z,68.04
2022-10-06T17:34:47.995Z,68.28
2022-10-06T17:37:17.448Z,68.49
2022-10-06T17:39:47.210Z,68.34
2022-10-06T17:42:16.273Z,68.74
2022-10-06T17:44:45.661Z,68.99
2022-10-06T17:47:13.945Z,68.80
2022-10-06T17:49:42.432Z,68.81
2022-10-06T17:52:10.913Z,68.11
2022-10-06T17:54:39.305Z,68.24
2022-10-06T17:57:07.372Z,68.34
2022-10-06T17:59:35.641Z,68.43
2022-10-06T18:02:04.076Z,68.41
2022-10-06T18:04:33.856Z,68.33
2022-10-06T18:07:03.437Z,68.23
2022-10-06T18:09:31.920Z,68.59
2022-10-06T18:12:00.348Z,68.77
2022-10-06T18:14:34.458Z,69.03
2022-10-06T18:17:04.208Z,69.43
2022-10-06T18:19:34.577Z,68.46
2022-10-06T18:22:12.863Z,69.39
2022-10-06T18:24:41.396Z,71.01
2022-10-06T18:27:09.827Z,70.17
2022-10-06T18:29:39.258Z,70.23
2022-10-06T18:37:56.673Z,69.71
2022-10-06T18:40:36.147Z,70.18
2022-10-06T18:43:07.182Z,70.15
2022-10-06T18:45:54.237Z,70.09
2022-10-06T18:48:41.353Z,70.07
2022-10-06T18:51:09.486Z,70.36
2022-10-06T18:53:39.219Z,70.88
2022-10-06T18:56:07.574Z,71.18
2022-10-06T18:58:41.764Z,71.09
2022-10-06T19:01:10.623Z,71.27
2022-10-06T19:03:39.374Z,71.49
2022-10-06T19:06:07.916Z,71.41
2022-10-06T19:08:36.022Z,71.26
2022-10-06T19:11:24.778Z,71.54
2022-10-06T19:13:53.977Z,72.15
2022-10-06T19:16:22.721Z,71.80
2022-10-06T19:18:51.148Z,73.12
2022-10-06T19:21:19.411Z,73.11
2022-10-06T19:23:48.313Z,72.85
2022-10-06T19:26:16.994Z,72.55
2022-10-06T19:28:45.070Z,72.35
2022-10-06T19:31:20.207Z,72.62
2022-10-06T19:33:48.786Z,72.88
2022-10-06T19:36:17.582Z,73.03
2022-10-06T19:38:46.061Z,72.94
2022-10-06T19:41:34.716Z,72.93
2022-10-06T19:44:03.411Z,72.54
2022-10-06T19:46:31.702Z,72.75
2022-10-06T19:49:05.894Z,72.68
2022-10-06T19:51:35.712Z,72.72
2022-10-06T19:54:05.008Z,72.49
2022-10-06T19:56:33.457Z,72.69
2022-10-06T19:59:02.360Z,72.85
2022-10-06T20:01:31.407Z,73.23
2022-10-06T20:04:02.556Z,73.53
2022-10-06T20:06:30.795Z,73.58
2022-10-06T20:08:58.869Z,73.73
2022-10-06T20:11:27.635Z,73.58
2022-10-06T20:13:55.959Z,73.63
2022-10-06T20:16:24.053Z,73.56
2022-10-06T20:18:52.031Z,73.84
2022-10-06T20:21:24.668Z,74.87
2022-10-06T20:23:56.452Z,74.28
2022-10-06T20:26:31.090Z,73.79
2022-10-06T20:29:01.723Z,74.21
2022-10-06T20:31:33.230Z,74.78
2022-10-06T20:34:04.231Z,74.22
2022-10-06T20:36:34.182Z,73.50
2022-10-06T20:39:22.118Z,73.72
2022-10-06T20:41:50.172Z,74.40
2022-10-06T20:44:18.576Z,74.27
2022-10-06T20:46:47.474Z,74.11
2022-10-06T20:49:18.173Z,74.12
2022-10-06T20:51:51.473Z,74.07
2022-10-06T20:54:23.931Z,74.32
2022-10-06T20:56:53.917Z,74.33
2022-10-06T20:59:24.066Z,74.23
2022-10-06T21:01:53.050Z,74.53
2022-10-06T21:04:21.662Z,74.95
2022-10-06T21:06:50.949Z,74.75
2022-10-06T21:09:19.636Z,74.55
2022-10-06T21:11:49.143Z,74.45
2022-10-06T21:14:18.260Z,74.51
2022-10-06T21:16:47.232Z,74.75
2022-10-06T21:19:17.893Z,75.08
2022-10-06T21:21:53.165Z,74.77
2022-10-06T21:24:21.478Z,74.69
2022-10-06T21:27:42.870Z,75.55
2022-10-06T21:30:13.111Z,75.31
2022-10-06T21:32:42.631Z,75.30
2022-10-06T21:35:10.599Z,75.54
2022-10-06T21:37:38.462Z,75.13
2022-10-06T21:40:06.846Z,75.35
2022-10-06T21:42:34.820Z,75.27
2022-10-06T21:45:02.892Z,75.18
2022-10-06T21:47:31.018Z,75.32
2022-10-06T21:49:59.031Z,75.46
2022-10-06T21:52:27.102Z,75.52
2022-10-06T21:54:55.073Z,75.58
2022-10-06T21:57:23.246Z,75.57
2022-10-06T21:59:51.158Z,76.19
2022-10-06T22:02:19.012Z,76.32
2022-10-06T22:04:47.157Z,76.17
2022-10-06T22:07:15.259Z,75.87
2022-10-06T22:09:43.299Z,75.78
2022-10-06T22:12:11.165Z,75.71
2022-10-06T22:14:39.136Z,75.63
2022-10-06T22:17:07.412Z,75.85
2022-10-06T22:19:35.242Z,75.93
2022-10-06T22:22:03.216Z,75.93
2022-10-06T22:24:31.063Z,75.86
2022-10-06T22:26:59.302Z,76.06
2022-10-06T22:29:27.463Z,76.69
2022-10-06T22:31:57.411Z,77.41
2022-10-06T22:34:25.657Z,76.88
2022-10-06T22:36:53.831Z,77.19
2022-10-06T22:39:21.906Z,77.31
2022-10-06T22:41:49.775Z,77.31
2022-10-06T22:44:17.842Z,77.38
2022-10-06T22:46:45.854Z,77.41
2022-10-06T22:49:14.191Z,77.51
2022-10-06T22:51:42.259Z,77.48
2022-10-06T22:54:16.377Z,77.60
2022-10-06T22:56:44.653Z,77.58
2022-10-06T22:59:12.570Z,77.67
2022-10-06T23:01:40.491Z,77.57
2022-10-06T23:04:08.458Z,77.56
2022-10-06T23:06:36.398Z,77.62
2022-10-06T23:09:04.910Z,77.60
2022-10-06T23:11:32.881Z,77.58
2022-10-06T23:14:00.881Z,77.48
2022-10-06T23:16:28.930Z,77.67
2022-10-06T23:18:58.015Z,77.46
2022-10-06T23:21:27.843Z,77.32
2022-10-06T23:23:59.404Z,77.40
2022-10-06T23:26:27.967Z,77.17
2022-10-06T23:28:58.747Z,76.91
2022-10-06T23:31:28.569Z,76.71
2022-10-06T23:33:57.552Z,76.66
2022-10-06T23:36:25.481Z,76.34
2022-10-06T23:38:53.547Z,76.17
2022-10-06T23:41:21.722Z,76.04
2022-10-06T23:43:49.798Z,75.95
2022-10-06T23:46:18.908Z,75.71
2022-10-06T23:48:47.232Z,75.72
2022-10-06T23:51:15.685Z,75.65
2022-10-06T23:53:44.045Z,75.73
2022-10-06T23:56:12.902Z,75.95
2022-10-06T23:58:42.536Z,76.21
